sensor_id;sensor_type;location;lat;lon;timestamp;P1;durP1;ratioP1;P2;durP2;ratioP2
14665;SDS011;7420;53.574;10.040;2023-04-23T00:02:11;8.48;;;7.63;;
14665;SDS011;7420;53.574;10.040;2023-04-23T00:04:39;11.75;;;8.07;;
14665;SDS011;7420;53.574;10.040;2023-04-23T00:07:15;9.30;;;8.35;;
14665;SDS011;7420;53.574;10.040;2023-04-23T00:09:43;10.07;;;8.20;;
14665;SDS011;7420;53.574;10.040;2023-04-23T00:12:10;10.38;;;7.55;;
14665;SDS011;7420;53.574;10.040;2023-04-23T00:14:39;13.15;;;9.40;;
14665;SDS011;7420;53.574;10.040;2023-04-23T00:17:04;11.60;;;8.90;;
14665;SDS011;7420;53.574;10.040;2023-04-23T00:19:30;10.85;;;9.75;;
14665;SDS011;7420;53.574;10.040;2023-04-23T00:21:55;9.73;;;8.73;;
14665;SDS011;7420;53.574;10.040;2023-04-23T00:24:21;11.10;;;9.30;;
14665;SDS011;7420;53.574;10.040;2023-04-23T00:26:47;10.35;;;9.10;;
14665;SDS011;7420;53.574;10.040;2023-04-23T00:29:13;11.70;;;9.25;;
14665;SDS011;7420;53.574;10.040;2023-04-23T00:31:38;11.45;;;9.50;;
14665;SDS011;7420;53.574;10.040;2023-04-23T00:34:04;12.32;;;9.63;;
14665;SDS011;7420;53.574;10.040;2023-04-23T00:36:29;13.10;;;10.38;;
14665;SDS011;7420;53.574;10.040;2023-04-23T00:38:55;14.07;;;10.00;;
14665;SDS011;7420;53.574;10.040;2023-04-23T00:41:20;14.25;;;9.63;;
14665;SDS011;7420;53.574;10.040;2023-04-23T00:43:47;12.52;;;10.85;;
14665;SDS011;7420;53.574;10.040;2023-04-23T00:46:13;14.27;;;11.43;;
14665;SDS011;7420;53.574;10.040;2023-04-23T00:48:39;12.10;;;10.70;;
14665;SDS011;7420;53.574;10.040;2023-04-23T00:51:04;15.70;;;12.48;;
14665;SDS011;7420;53.574;10.040;2023-04-23T00:53:31;15.60;;;11.68;;
14665;SDS011;7420;53.574;10.040;2023-04-23T00:55:57;13.63;;;11.63;;
14665;SDS011;7420;53.574;10.040;2023-04-23T00:58:23;15.70;;;12.35;;
14665;SDS011;7420;53.574;10.040;2023-04-23T01:00:49;15.82;;;12.63;;
14665;SDS011;7420;53.574;10.040;2023-04-23T01:03:16;16.25;;;12.82;;
14665;SDS011;7420;53.574;10.040;2023-04-23T01:05:42;15.85;;;12.02;;
14665;SDS011;7420;53.574;10.040;2023-04-23T01:08:09;16.45;;;12.25;;
14665;SDS011;7420;53.574;10.040;2023-04-23T01:10:38;16.23;;;12.98;;
14665;SDS011;7420;53.574;10.040;2023-04-23T01:13:03;14.93;;;11.85;;
14665;SDS011;7420;53.574;10.040;2023-04-23T01:15:29;17.70;;;13.60;;
14665;SDS011;7420;53.574;10.040;2023-04-23T01:17:54;18.95;;;14.10;;
14665;SDS011;7420;53.574;10.040;2023-04-23T01:20:22;15.38;;;12.45;;
14665;SDS011;7420;53.574;10.040;2023-04-23T01:22:47;16.60;;;13.93;;
14665;SDS011;7420;53.574;10.040;2023-04-23T01:25:13;19.50;;;14.63;;
14665;SDS011;7420;53.574;10.040;2023-04-23T01:27:38;17.45;;;13.70;;
14665;SDS011;7420;53.574;10.040;2023-04-23T01:30:05;16.80;;;13.30;;
14665;SDS011;7420;53.574;10.040;2023-04-23T01:32:31;17.33;;;12.93;;
14665;SDS011;7420;53.574;10.040;2023-04-23T01:34:57;16.50;;;13.80;;
14665;SDS011;7420;53.574;10.040;2023-04-23T01:37:23;16.13;;;12.60;;
14665;SDS011;7420;53.574;10.040;2023-04-23T01:39:49;13.73;;;11.63;;
14665;SDS011;7420;53.574;10.040;2023-04-23T01:42:15;13.35;;;10.50;;
14665;SDS011;7420;53.574;10.040;2023-04-23T01:44:40;16.83;;;12.43;;
14665;SDS011;7420;53.574;10.040;2023-04-23T01:47:06;15.85;;;12.35;;
14665;SDS011;7420;53.574;10.040;2023-04-23T01:49:31;13.55;;;11.70;;
14665;SDS011;7420;53.574;10.040;2023-04-23T01:51:57;24.02;;;12.02;;
14665;SDS011;7420;53.574;10.040;2023-04-23T01:54:22;17.52;;;14.05;;
14665;SDS011;7420;53.574;10.040;2023-04-23T01:56:48;15.15;;;12.30;;
14665;SDS011;7420;53.574;10.040;2023-04-23T01:59:13;16.85;;;12.98;;
14665;SDS011;7420;53.574;10.040;2023-04-23T02:01:39;14.55;;;12.80;;
14665;SDS011;7420;53.574;10.040;2023-04-23T02:04:09;15.95;;;12.20;;
14665;SDS011;7420;53.574;10.040;2023-04-23T02:06:36;15.85;;;13.10;;
14665;SDS011;7420;53.574;10.040;2023-04-23T02:09:01;15.80;;;12.32;;
14665;SDS011;7420;53.574;10.040;2023-04-23T02:11:27;17.10;;;13.25;;
14665;SDS011;7420;53.574;10.040;2023-04-23T02:13:52;20.10;;;14.57;;
14665;SDS011;7420;53.574;10.040;2023-04-23T02:16:17;23.45;;;18.42;;
14665;SDS011;7420;53.574;10.040;2023-04-23T02:18:43;25.58;;;19.58;;
14665;SDS011;7420;53.574;10.040;2023-04-23T02:21:09;28.48;;;20.45;;
14665;SDS011;7420;53.574;10.040;2023-04-23T02:23:35;29.52;;;21.92;;
14665;SDS011;7420;53.574;10.040;2023-04-23T02:26:00;27.70;;;21.25;;
14665;SDS011;7420;53.574;10.040;2023-04-23T02:28:26;31.33;;;21.65;;
14665;SDS011;7420;53.574;10.040;2023-04-23T02:30:51;33.95;;;23.25;;
14665;SDS011;7420;53.574;10.040;2023-04-23T02:33:16;33.40;;;24.25;;
14665;SDS011;7420;53.574;10.040;2023-04-23T02:35:43;33.20;;;24.05;;
14665;SDS011;7420;53.574;10.040;2023-04-23T02:38:08;37.85;;;26.98;;
14665;SDS011;7420;53.574;10.040;2023-04-23T02:40:34;33.50;;;25.25;;
14665;SDS011;7420;53.574;10.040;2023-04-23T02:43:00;35.80;;;26.13;;
14665;SDS011;7420;53.574;10.040;2023-04-23T02:45:25;37.72;;;26.13;;
14665;SDS011;7420;53.574;10.040;2023-04-23T02:47:51;33.72;;;25.42;;
14665;SDS011;7420;53.574;10.040;2023-04-23T02:50:17;35.38;;;24.45;;
14665;SDS011;7420;53.574;10.040;2023-04-23T02:52:42;36.15;;;25.92;;
14665;SDS011;7420;53.574;10.040;2023-04-23T02:55:08;38.45;;;26.30;;
14665;SDS011;7420;53.574;10.040;2023-04-23T02:57:34;34.65;;;24.25;;
14665;SDS011;7420;53.574;10.040;2023-04-23T03:00:00;40.25;;;25.70;;
14665;SDS011;7420;53.574;10.040;2023-04-23T03:02:26;36.75;;;24.95;;
14665;SDS011;7420;53.574;10.040;2023-04-23T03:04:51;35.08;;;23.98;;
14665;SDS011;7420;53.574;10.040;2023-04-23T03:07:17;34.28;;;23.63;;
14665;SDS011;7420;53.574;10.040;2023-04-23T03:09:42;33.58;;;23.73;;
14665;SDS011;7420;53.574;10.040;2023-04-23T03:12:08;33.85;;;21.75;;
14665;SDS011;7420;53.574;10.040;2023-04-23T03:14:33;34.58;;;23.77;;
14665;SDS011;7420;53.574;10.040;2023-04-23T03:16:59;35.65;;;24.75;;
14665;SDS011;7420;53.574;10.040;2023-04-23T03:19:24;38.97;;;27.35;;
14665;SDS011;7420;53.574;10.040;2023-04-23T03:21:50;41.65;;;25.25;;
14665;SDS011;7420;53.574;10.040;2023-04-23T03:24:15;38.40;;;25.50;;
14665;SDS011;7420;53.574;10.040;2023-04-23T03:26:41;35.95;;;23.75;;
14665;SDS011;7420;53.574;10.040;2023-04-23T03:29:06;29.35;;;20.88;;
14665;SDS011;7420;53.574;10.040;2023-04-23T03:31:32;26.38;;;18.23;;
14665;SDS011;7420;53.574;10.040;2023-04-23T03:33:57;27.90;;;19.25;;
14665;SDS011;7420;53.574;10.040;2023-04-23T03:36:22;27.08;;;17.42;;
14665;SDS011;7420;53.574;10.040;2023-04-23T03:38:48;30.23;;;19.77;;
14665;SDS011;7420;53.574;10.040;2023-04-23T03:41:13;26.33;;;18.27;;
14665;SDS011;7420;53.574;10.040;2023-04-23T03:43:38;24.30;;;18.23;;
14665;SDS011;7420;53.574;10.040;2023-04-23T03:46:04;25.52;;;15.63;;
14665;SDS011;7420;53.574;10.040;2023-04-23T03:48:29;24.30;;;16.27;;
14665;SDS011;7420;53.574;10.040;2023-04-23T03:50:56;22.67;;;16.85;;
14665;SDS011;7420;53.574;10.040;2023-04-23T03:53:21;23.23;;;16.15;;
14665;SDS011;7420;53.574;10.040;2023-04-23T03:55:47;23.98;;;15.52;;
14665;SDS011;7420;53.574;10.040;2023-04-23T03:58:12;24.85;;;16.10;;
14665;SDS011;7420;53.574;10.040;2023-04-23T04:00:37;23.85;;;17.23;;
14665;SDS011;7420;53.574;10.040;2023-04-23T04:03:03;21.70;;;15.88;;
14665;SDS011;7420;53.574;10.040;2023-04-23T04:05:28;21.17;;;15.13;;
14665;SDS011;7420;53.574;10.040;2023-04-23T04:07:53;23.65;;;14.35;;
14665;SDS011;7420;53.574;10.040;2023-04-23T04:10:19;22.17;;;14.95;;
14665;SDS011;7420;53.574;10.040;2023-04-23T04:12:45;22.05;;;15.48;;
14665;SDS011;7420;53.574;10.040;2023-04-23T04:15:11;22.52;;;16.08;;
14665;SDS011;7420;53.574;10.040;2023-04-23T04:17:37;21.27;;;14.02;;
14665;SDS011;7420;53.574;10.040;2023-04-23T04:20:03;19.63;;;14.88;;
14665;SDS011;7420;53.574;10.040;2023-04-23T04:22:30;20.83;;;15.55;;
14665;SDS011;7420;53.574;10.040;2023-04-23T04:24:56;25.02;;;14.02;;
14665;SDS011;7420;53.574;10.040;2023-04-23T04:27:21;20.23;;;14.02;;
14665;SDS011;7420;53.574;10.040;2023-04-23T04:29:46;25.27;;;16.05;;
14665;SDS011;7420;53.574;10.040;2023-04-23T04:32:12;20.70;;;14.32;;
14665;SDS011;7420;53.574;10.040;2023-04-23T04:34:38;20.65;;;13.43;;
14665;SDS011;7420;53.574;10.040;2023-04-23T04:37:04;20.23;;;14.43;;
14665;SDS011;7420;53.574;10.040;2023-04-23T04:39:29;21.48;;;13.65;;
14665;SDS011;7420;53.574;10.040;2023-04-23T04:41:55;18.70;;;14.05;;
14665;SDS011;7420;53.574;10.040;2023-04-23T04:44:21;19.23;;;12.93;;
14665;SDS011;7420;53.574;10.040;2023-04-23T04:46:47;19.75;;;12.80;;
14665;SDS011;7420;53.574;10.040;2023-04-23T04:49:12;17.85;;;11.77;;
14665;SDS011;7420;53.574;10.040;2023-04-23T04:51:39;18.98;;;13.02;;
14665;SDS011;7420;53.574;10.040;2023-04-23T04:54:05;15.80;;;11.27;;
14665;SDS011;7420;53.574;10.040;2023-04-23T04:56:34;17.80;;;11.13;;
14665;SDS011;7420;53.574;10.040;2023-04-23T04:59:00;15.70;;;11.05;;
14665;SDS011;7420;53.574;10.040;2023-04-23T05:01:26;13.50;;;10.35;;
14665;SDS011;7420;53.574;10.040;2023-04-23T05:03:53;15.90;;;11.73;;
14665;SDS011;7420;53.574;10.040;2023-04-23T05:06:21;15.10;;;10.60;;
14665;SDS011;7420;53.574;10.040;2023-04-23T05:08:46;13.82;;;10.88;;
14665;SDS011;7420;53.574;10.040;2023-04-23T05:11:15;16.67;;;11.38;;
14665;SDS011;7420;53.574;10.040;2023-04-23T05:13:42;16.63;;;12.15;;
14665;SDS011;7420;53.574;10.040;2023-04-23T05:16:11;14.80;;;10.75;;
14665;SDS011;7420;53.574;10.040;2023-04-23T05:18:37;18.00;;;11.48;;
14665;SDS011;7420;53.574;10.040;2023-04-23T05:21:03;14.00;;;10.70;;
14665;SDS011;7420;53.574;10.040;2023-04-23T05:23:29;11.65;;;9.52;;
14665;SDS011;7420;53.574;10.040;2023-04-23T05:25:54;14.85;;;10.00;;
14665;SDS011;7420;53.574;10.040;2023-04-23T05:28:21;12.35;;;9.27;;
14665;SDS011;7420;53.574;10.040;2023-04-23T05:30:49;13.57;;;8.68;;
14665;SDS011;7420;53.574;10.040;2023-04-23T05:33:15;10.40;;;8.30;;
14665;SDS011;7420;53.574;10.040;2023-04-23T05:35:41;12.35;;;8.77;;
14665;SDS011;7420;53.574;10.040;2023-04-23T05:38:06;11.60;;;7.95;;
14665;SDS011;7420;53.574;10.040;2023-04-23T05:40:31;10.30;;;7.20;;
14665;SDS011;7420;53.574;10.040;2023-04-23T05:42:57;11.43;;;7.88;;
14665;SDS011;7420;53.574;10.040;2023-04-23T05:45:23;10.48;;;7.57;;
14665;SDS011;7420;53.574;10.040;2023-04-23T05:47:48;11.90;;;8.35;;
14665;SDS011;7420;53.574;10.040;2023-04-23T05:50:14;12.30;;;7.70;;
14665;SDS011;7420;53.574;10.040;2023-04-23T05:52:39;11.68;;;7.22;;
14665;SDS011;7420;53.574;10.040;2023-04-23T05:55:05;10.65;;;7.70;;
14665;SDS011;7420;53.574;10.040;2023-04-23T05:57:31;13.70;;;8.45;;
14665;SDS011;7420;53.574;10.040;2023-04-23T05:59:57;11.48;;;7.93;;
14665;SDS011;7420;53.574;10.040;2023-04-23T06:02:22;12.38;;;9.00;;
14665;SDS011;7420;53.574;10.040;2023-04-23T06:04:48;13.63;;;8.48;;
14665;SDS011;7420;53.574;10.040;2023-04-23T06:07:13;9.75;;;7.78;;
14665;SDS011;7420;53.574;10.040;2023-04-23T06:09:40;10.73;;;7.85;;
14665;SDS011;7420;53.574;10.040;2023-04-23T06:12:09;10.57;;;7.82;;
14665;SDS011;7420;53.574;10.040;2023-04-23T06:14:35;11.85;;;8.07;;
14665;SDS011;7420;53.574;10.040;2023-04-23T06:17:00;10.30;;;8.50;;
14665;SDS011;7420;53.574;10.040;2023-04-23T06:19:26;10.68;;;7.65;;
14665;SDS011;7420;53.574;10.040;2023-04-23T06:21:52;12.05;;;7.47;;
14665;SDS011;7420;53.574;10.040;2023-04-23T06:24:18;11.70;;;8.10;;
14665;SDS011;7420;53.574;10.040;2023-04-23T06:26:43;12.73;;;8.20;;
14665;SDS011;7420;53.574;10.040;2023-04-23T06:29:08;9.13;;;6.78;;
14665;SDS011;7420;53.574;10.040;2023-04-23T06:31:34;8.45;;;6.60;;
14665;SDS011;7420;53.574;10.040;2023-04-23T06:34:00;11.43;;;7.47;;
14665;SDS011;7420;53.574;10.040;2023-04-23T06:36:25;10.05;;;6.90;;
14665;SDS011;7420;53.574;10.040;2023-04-23T06:38:51;10.32;;;6.18;;
14665;SDS011;7420;53.574;10.040;2023-04-23T06:41:16;7.85;;;6.00;;
14665;SDS011;7420;53.574;10.040;2023-04-23T06:43:42;11.35;;;5.72;;
14665;SDS011;7420;53.574;10.040;2023-04-23T06:46:07;9.75;;;6.55;;
14665;SDS011;7420;53.574;10.040;2023-04-23T06:48:33;8.10;;;6.13;;
14665;SDS011;7420;53.574;10.040;2023-04-23T06:50:59;9.75;;;6.40;;
14665;SDS011;7420;53.574;10.040;2023-04-23T06:53:24;8.38;;;6.28;;
14665;SDS011;7420;53.574;10.040;2023-04-23T06:55:50;11.38;;;7.25;;
14665;SDS011;7420;53.574;10.040;2023-04-23T06:58:16;9.65;;;6.93;;
14665;SDS011;7420;53.574;10.040;2023-04-23T07:00:42;10.00;;;6.43;;
14665;SDS011;7420;53.574;10.040;2023-04-23T07:03:07;9.90;;;6.03;;
14665;SDS011;7420;53.574;10.040;2023-04-23T07:05:33;9.20;;;6.45;;
14665;SDS011;7420;53.574;10.040;2023-04-23T07:07:58;8.55;;;6.47;;
14665;SDS011;7420;53.574;10.040;2023-04-23T07:10:24;9.07;;;6.80;;
14665;SDS011;7420;53.574;10.040;2023-04-23T07:12:49;11.95;;;7.60;;
14665;SDS011;7420;53.574;10.040;2023-04-23T07:15:15;10.13;;;7.88;;
14665;SDS011;7420;53.574;10.040;2023-04-23T07:17:40;11.20;;;7.60;;
14665;SDS011;7420;53.574;10.040;2023-04-23T07:20:06;11.75;;;6.80;;
14665;SDS011;7420;53.574;10.040;2023-04-23T07:22:32;9.65;;;7.20;;
14665;SDS011;7420;53.574;10.040;2023-04-23T07:24:58;10.05;;;6.47;;
14665;SDS011;7420;53.574;10.040;2023-04-23T07:27:24;8.40;;;6.30;;
14665;SDS011;7420;53.574;10.040;2023-04-23T07:29:52;9.60;;;6.22;;
14665;SDS011;7420;53.574;10.040;2023-04-23T07:32:18;11.07;;;6.55;;
14665;SDS011;7420;53.574;10.040;2023-04-23T07:34:43;8.05;;;5.85;;
14665;SDS011;7420;53.574;10.040;2023-04-23T07:37:11;10.90;;;6.68;;
14665;SDS011;7420;53.574;10.040;2023-04-23T07:39:36;11.27;;;6.53;;
14665;SDS011;7420;53.574;10.040;2023-04-23T07:42:02;9.50;;;6.53;;
14665;SDS011;7420;53.574;10.040;2023-04-23T07:44:27;9.60;;;7.00;;
14665;SDS011;7420;53.574;10.040;2023-04-23T07:46:53;9.90;;;6.55;;
14665;SDS011;7420;53.574;10.040;2023-04-23T07:49:18;9.75;;;7.40;;
14665;SDS011;7420;53.574;10.040;2023-04-23T07:51:43;10.70;;;7.07;;
14665;SDS011;7420;53.574;10.040;2023-04-23T07:54:09;10.30;;;6.68;;
14665;SDS011;7420;53.574;10.040;2023-04-23T07:56:35;10.98;;;6.22;;
14665;SDS011;7420;53.574;10.040;2023-04-23T07:59:01;9.07;;;6.63;;
14665;SDS011;7420;53.574;10.040;2023-04-23T08:01:27;9.45;;;6.53;;
14665;SDS011;7420;53.574;10.040;2023-04-23T08:03:52;9.65;;;6.20;;
14665;SDS011;7420;53.574;10.040;2023-04-23T08:06:20;9.48;;;6.68;;
14665;SDS011;7420;53.574;10.040;2023-04-23T08:08:47;11.38;;;7.72;;
14665;SDS011;7420;53.574;10.040;2023-04-23T08:11:13;8.95;;;6.55;;
14665;SDS011;7420;53.574;10.040;2023-04-23T08:13:41;10.98;;;6.45;;
14665;SDS011;7420;53.574;10.040;2023-04-23T08:16:06;7.90;;;6.50;;
14665;SDS011;7420;53.574;10.040;2023-04-23T08:18:31;12.13;;;6.05;;
14665;SDS011;7420;53.574;10.040;2023-04-23T08:20:57;10.43;;;6.97;;
14665;SDS011;7420;53.574;10.040;2023-04-23T08:23:23;10.32;;;6.63;;
14665;SDS011;7420;53.574;10.040;2023-04-23T08:25:49;9.73;;;6.60;;
14665;SDS011;7420;53.574;10.040;2023-04-23T08:28:14;10.45;;;6.95;;
14665;SDS011;7420;53.574;10.040;2023-04-23T08:30:40;12.73;;;8.13;;
14665;SDS011;7420;53.574;10.040;2023-04-23T08:33:05;11.98;;;8.45;;
14665;SDS011;7420;53.574;10.040;2023-04-23T08:35:31;14.20;;;9.00;;
14665;SDS011;7420;53.574;10.040;2023-04-23T08:37:56;13.88;;;10.35;;
14665;SDS011;7420;53.574;10.040;2023-04-23T08:40:22;13.60;;;10.35;;
14665;SDS011;7420;53.574;10.040;2023-04-23T08:42:49;15.10;;;11.80;;
14665;SDS011;7420;53.574;10.040;2023-04-23T08:45:17;14.55;;;11.88;;
14665;SDS011;7420;53.574;10.040;2023-04-23T08:47:43;9.52;;;7.55;;
14665;SDS011;7420;53.574;10.040;2023-04-23T08:50:13;12.25;;;8.00;;
14665;SDS011;7420;53.574;10.040;2023-04-23T08:52:46;11.60;;;8.07;;
14665;SDS011;7420;53.574;10.040;2023-04-23T08:55:14;12.35;;;6.75;;
14665;SDS011;7420;53.574;10.040;2023-04-23T08:57:40;10.95;;;7.45;;
14665;SDS011;7420;53.574;10.040;2023-04-23T09:00:07;8.40;;;7.53;;
14665;SDS011;7420;53.574;10.040;2023-04-23T09:02:34;10.43;;;7.30;;
14665;SDS011;7420;53.574;10.040;2023-04-23T09:05:01;7.88;;;6.60;;
14665;SDS011;7420;53.574;10.040;2023-04-23T09:07:28;10.52;;;6.90;;
14665;SDS011;7420;53.574;10.040;2023-04-23T09:09:53;8.73;;;6.72;;
14665;SDS011;7420;53.574;10.040;2023-04-23T09:12:19;9.38;;;6.70;;
14665;SDS011;7420;53.574;10.040;2023-04-23T09:14:45;9.57;;;7.32;;
14665;SDS011;7420;53.574;10.040;2023-04-23T09:17:10;9.75;;;6.38;;
14665;SDS011;7420;53.574;10.040;2023-04-23T09:19:36;8.55;;;6.40;;
14665;SDS011;7420;53.574;10.040;2023-04-23T09:22:06;9.30;;;7.15;;
14665;SDS011;7420;53.574;10.040;2023-04-23T09:24:32;10.27;;;6.85;;
14665;SDS011;7420;53.574;10.040;2023-04-23T09:26:58;7.55;;;6.20;;
14665;SDS011;7420;53.574;10.040;2023-04-23T09:29:24;7.55;;;6.22;;
14665;SDS011;7420;53.574;10.040;2023-04-23T09:31:50;10.93;;;6.03;;
14665;SDS011;7420;53.574;10.040;2023-04-23T09:34:23;10.82;;;6.15;;
14665;SDS011;7420;53.574;10.040;2023-04-23T09:36:50;6.80;;;5.93;;
14665;SDS011;7420;53.574;10.040;2023-04-23T09:39:17;9.93;;;6.60;;
14665;SDS011;7420;53.574;10.040;2023-04-23T09:41:43;7.70;;;6.30;;
14665;SDS011;7420;53.574;10.040;2023-04-23T09:44:13;10.13;;;6.72;;
14665;SDS011;7420;53.574;10.040;2023-04-23T09:46:42;7.60;;;6.28;;
14665;SDS011;7420;53.574;10.040;2023-04-23T09:49:09;9.18;;;6.78;;
14665;SDS011;7420;53.574;10.040;2023-04-23T09:51:37;8.70;;;7.05;;
14665;SDS011;7420;53.574;10.040;2023-04-23T09:54:07;8.65;;;6.97;;
14665;SDS011;7420;53.574;10.040;2023-04-23T09:56:35;9.57;;;7.57;;
14665;SDS011;7420;53.574;10.040;2023-04-23T09:59:01;11.02;;;6.97;;
14665;SDS011;7420;53.574;10.040;2023-04-23T10:01:26;8.77;;;7.03;;
14665;SDS011;7420;53.574;10.040;2023-04-23T10:03:53;8.00;;;6.20;;
14665;SDS011;7420;53.574;10.040;2023-04-23T10:06:29;7.75;;;5.57;;
14665;SDS011;7420;53.574;10.040;2023-04-23T10:08:56;7.05;;;5.00;;
14665;SDS011;7420;53.574;10.040;2023-04-23T10:11:24;7.70;;;6.57;;
14665;SDS011;7420;53.574;10.040;2023-04-23T10:13:51;9.52;;;7.03;;
14665;SDS011;7420;53.574;10.040;2023-04-23T10:16:17;8.70;;;6.05;;
14665;SDS011;7420;53.574;10.040;2023-04-23T10:18:45;8.65;;;6.03;;
14665;SDS011;7420;53.574;10.040;2023-04-23T10:21:11;10.85;;;7.32;;
14665;SDS011;7420;53.574;10.040;2023-04-23T10:23:38;8.77;;;6.72;;
14665;SDS011;7420;53.574;10.040;2023-04-23T10:26:08;8.48;;;6.65;;
14665;SDS011;7420;53.574;10.040;2023-04-23T10:28:38;6.82;;;5.88;;
14665;SDS011;7420;53.574;10.040;2023-04-23T10:31:04;8.32;;;6.53;;
14665;SDS011;7420;53.574;10.040;2023-04-23T10:33:30;9.63;;;6.25;;
14665;SDS011;7420;53.574;10.040;2023-04-23T10:35:56;8.38;;;6.30;;
14665;SDS011;7420;53.574;10.040;2023-04-23T10:38:22;8.10;;;6.97;;
14665;SDS011;7420;53.574;10.040;2023-04-23T10:40:48;9.50;;;6.65;;
14665;SDS011;7420;53.574;10.040;2023-04-23T10:43:16;10.43;;;7.93;;
14665;SDS011;7420;53.574;10.040;2023-04-23T10:45:43;9.60;;;7.35;;
14665;SDS011;7420;53.574;10.040;2023-04-23T10:48:08;10.95;;;8.60;;
14665;SDS011;7420;53.574;10.040;2023-04-23T10:50:35;11.43;;;7.65;;
14665;SDS011;7420;53.574;10.040;2023-04-23T10:53:01;13.30;;;9.50;;
14665;SDS011;7420;53.574;10.040;2023-04-23T10:55:30;10.32;;;7.68;;
14665;SDS011;7420;53.574;10.040;2023-04-23T11:00:26;9.02;;;7.25;;
14665;SDS011;7420;53.574;10.040;2023-04-23T11:02:52;13.50;;;9.18;;
14665;SDS011;7420;53.574;10.040;2023-04-23T11:05:18;10.57;;;8.18;;
14665;SDS011;7420;53.574;10.040;2023-04-23T11:08:00;12.70;;;8.63;;
14665;SDS011;7420;53.574;10.040;2023-04-23T11:10:31;9.35;;;8.35;;
14665;SDS011;7420;53.574;10.040;2023-04-23T11:13:18;9.10;;;7.70;;
14665;SDS011;7420;53.574;10.040;2023-04-23T11:24:30;16.63;;;9.05;;
14665;SDS011;7420;53.574;10.040;2023-04-23T11:26:57;11.50;;;9.88;;
14665;SDS011;7420;53.574;10.040;2023-04-23T11:29:24;10.77;;;9.00;;
14665;SDS011;7420;53.574;10.040;2023-04-23T11:31:51;10.13;;;8.95;;
14665;SDS011;7420;53.574;10.040;2023-04-23T11:34:17;12.93;;;9.65;;
14665;SDS011;7420;53.574;10.040;2023-04-23T11:36:43;12.73;;;9.48;;
14665;SDS011;7420;53.574;10.040;2023-04-23T11:39:10;10.50;;;8.15;;
14665;SDS011;7420;53.574;10.040;2023-04-23T11:41:36;12.63;;;8.70;;
14665;SDS011;7420;53.574;10.040;2023-04-23T11:44:02;12.52;;;9.60;;
14665;SDS011;7420;53.574;10.040;2023-04-23T11:46:28;10.80;;;8.02;;
14665;SDS011;7420;53.574;10.040;2023-04-23T11:48:54;10.35;;;8.13;;
14665;SDS011;7420;53.574;10.040;2023-04-23T11:51:24;10.38;;;8.32;;
14665;SDS011;7420;53.574;10.040;2023-04-23T11:53:50;12.70;;;8.48;;
14665;SDS011;7420;53.574;10.040;2023-04-23T11:56:15;12.63;;;7.93;;
14665;SDS011;7420;53.574;10.040;2023-04-23T11:58:41;9.95;;;7.65;;
14665;SDS011;7420;53.574;10.040;2023-04-23T12:01:06;11.07;;;8.55;;
14665;SDS011;7420;53.574;10.040;2023-04-23T12:03:32;11.50;;;9.05;;
14665;SDS011;7420;53.574;10.040;2023-04-23T12:05:57;9.48;;;8.10;;
14665;SDS011;7420;53.574;10.040;2023-04-23T12:08:23;9.32;;;7.45;;
14665;SDS011;7420;53.574;10.040;2023-04-23T12:10:52;10.05;;;8.48;;
14665;SDS011;7420;53.574;10.040;2023-04-23T12:13:22;9.32;;;7.72;;
14665;SDS011;7420;53.574;10.040;2023-04-23T12:18:26;7.82;;;6.18;;
14665;SDS011;7420;53.574;10.040;2023-04-23T12:21:04;8.93;;;7.28;;
14665;SDS011;7420;53.574;10.040;2023-04-23T12:23:34;8.55;;;7.60;;
14665;SDS011;7420;53.574;10.040;2023-04-23T12:26:03;7.15;;;6.43;;
14665;SDS011;7420;53.574;10.040;2023-04-23T12:28:30;9.07;;;6.80;;
14665;SDS011;7420;53.574;10.040;2023-04-23T12:31:00;9.35;;;7.43;;
14665;SDS011;7420;53.574;10.040;2023-04-23T12:33:29;7.10;;;5.80;;
14665;SDS011;7420;53.574;10.040;2023-04-23T12:35:55;7.93;;;6.13;;
14665;SDS011;7420;53.574;10.040;2023-04-23T12:38:27;8.52;;;7.10;;
14665;SDS011;7420;53.574;10.040;2023-04-23T12:40:54;7.97;;;5.78;;
14665;SDS011;7420;53.574;10.040;2023-04-23T12:43:21;7.80;;;5.70;;
14665;SDS011;7420;53.574;10.040;2023-04-23T12:45:48;7.00;;;5.65;;
14665;SDS011;7420;53.574;10.040;2023-04-23T12:48:14;7.35;;;6.13;;
14665;SDS011;7420;53.574;10.040;2023-04-23T12:50:40;6.05;;;5.22;;
14665;SDS011;7420;53.574;10.040;2023-04-23T12:53:05;8.00;;;5.30;;
14665;SDS011;7420;53.574;10.040;2023-04-23T12:55:32;6.15;;;4.85;;
14665;SDS011;7420;53.574;10.040;2023-04-23T12:57:58;6.90;;;5.32;;
14665;SDS011;7420;53.574;10.040;2023-04-23T13:00:23;6.68;;;5.07;;
14665;SDS011;7420;53.574;10.040;2023-04-23T13:02:50;7.05;;;5.22;;
14665;SDS011;7420;53.574;10.040;2023-04-23T13:05:15;6.43;;;4.90;;
14665;SDS011;7420;53.574;10.040;2023-04-23T13:07:41;8.18;;;5.38;;
14665;SDS011;7420;53.574;10.040;2023-04-23T13:10:07;8.55;;;5.45;;
14665;SDS011;7420;53.574;10.040;2023-04-23T13:12:33;7.78;;;4.95;;
14665;SDS011;7420;53.574;10.040;2023-04-23T13:14:59;5.32;;;4.82;;
14665;SDS011;7420;53.574;10.040;2023-04-23T13:17:24;6.65;;;4.88;;
14665;SDS011;7420;53.574;10.040;2023-04-23T13:19:50;5.82;;;5.22;;
14665;SDS011;7420;53.574;10.040;2023-04-23T13:22:16;5.70;;;4.68;;
14665;SDS011;7420;53.574;10.040;2023-04-23T13:24:42;6.05;;;4.20;;
14665;SDS011;7420;53.574;10.040;2023-04-23T13:27:07;5.88;;;3.97;;
14665;SDS011;7420;53.574;10.040;2023-04-23T13:29:33;5.70;;;4.00;;
14665;SDS011;7420;53.574;10.040;2023-04-23T13:31:58;4.38;;;3.97;;
14665;SDS011;7420;53.574;10.040;2023-04-23T13:34:24;5.55;;;4.28;;
14665;SDS011;7420;53.574;10.040;2023-04-23T13:36:50;4.57;;;3.70;;
14665;SDS011;7420;53.574;10.040;2023-04-23T13:39:15;6.18;;;3.63;;
14665;SDS011;7420;53.574;10.040;2023-04-23T13:41:42;3.85;;;3.42;;
14665;SDS011;7420;53.574;10.040;2023-04-23T13:44:08;8.70;;;3.35;;
14665;SDS011;7420;53.574;10.040;2023-04-23T13:46:33;6.15;;;3.70;;
14665;SDS011;7420;53.574;10.040;2023-04-23T13:48:59;5.90;;;3.33;;
14665;SDS011;7420;53.574;10.040;2023-04-23T13:51:25;4.57;;;3.42;;
14665;SDS011;7420;53.574;10.040;2023-04-23T13:53:51;5.00;;;3.42;;
14665;SDS011;7420;53.574;10.040;2023-04-23T13:56:17;7.03;;;4.20;;
14665;SDS011;7420;53.574;10.040;2023-04-23T13:58:42;3.60;;;3.10;;
14665;SDS011;7420;53.574;10.040;2023-04-23T14:01:11;4.25;;;3.85;;
14665;SDS011;7420;53.574;10.040;2023-04-23T14:03:40;4.97;;;3.83;;
14665;SDS011;7420;53.574;10.040;2023-04-23T14:06:06;6.80;;;3.72;;
14665;SDS011;7420;53.574;10.040;2023-04-23T14:08:31;4.40;;;3.35;;
14665;SDS011;7420;53.574;10.040;2023-04-23T14:10:57;5.50;;;3.20;;
14665;SDS011;7420;53.574;10.040;2023-04-23T14:13:22;4.68;;;3.42;;
14665;SDS011;7420;53.574;10.040;2023-04-23T14:15:48;3.30;;;3.00;;
14665;SDS011;7420;53.574;10.040;2023-04-23T14:18:13;4.63;;;3.05;;
14665;SDS011;7420;53.574;10.040;2023-04-23T14:20:40;4.10;;;3.63;;
14665;SDS011;7420;53.574;10.040;2023-04-23T14:25:41;5.13;;;3.30;;
14665;SDS011;7420;53.574;10.040;2023-04-23T14:30:53;3.85;;;2.85;;
14665;SDS011;7420;53.574;10.040;2023-04-23T14:33:20;3.53;;;2.95;;
14665;SDS011;7420;53.574;10.040;2023-04-23T14:35:46;6.72;;;4.53;;
14665;SDS011;7420;53.574;10.040;2023-04-23T14:38:11;6.25;;;5.03;;
14665;SDS011;7420;53.574;10.040;2023-04-23T14:40:37;8.77;;;6.43;;
14665;SDS011;7420;53.574;10.040;2023-04-23T14:43:02;9.35;;;5.82;;
14665;SDS011;7420;53.574;10.040;2023-04-23T14:45:28;7.80;;;5.00;;
14665;SDS011;7420;53.574;10.040;2023-04-23T14:47:56;4.75;;;3.90;;
14665;SDS011;7420;53.574;10.040;2023-04-23T14:50:23;4.90;;;3.95;;